createdAt,value
2022-08-17T00:01:52.543Z,3.50
2022-08-17T00:04:24.608Z,3.80
2022-08-17T00:06:55.668Z,4.10
2022-08-17T00:09:26.741Z,3.90
2022-08-17T00:12:40.943Z,4.40
2022-08-17T00:14:50.474Z,3.80
2022-08-17T00:17:21.558Z,4.00
2022-08-17T00:19:52.673Z,3.50
2022-08-17T00:22:32.624Z,4.30
2022-08-17T00:25:12.299Z,4.30
2022-08-17T00:27:43.416Z,4.60
2022-08-17T00:30:17.879Z,4.50
2022-08-17T00:33:12.527Z,4.40
2022-08-17T00:35:42.973Z,4.40
2022-08-17T00:38:14.605Z,4.20
2022-08-17T00:40:48.688Z,3.80
2022-08-17T00:43:22.628Z,4.30
2022-08-17T00:45:54.241Z,3.60
2022-08-17T00:48:29.896Z,3.80
2022-08-17T00:51:08.409Z,4.30
2022-08-17T00:53:43.993Z,4.70
2022-08-17T00:56:21.118Z,4.00
2022-08-17T01:01:22.376Z,4.10
2022-08-17T01:03:59.841Z,4.10
2022-08-17T01:06:31.266Z,3.70
2022-08-17T01:09:05.493Z,4.50
2022-08-17T01:11:37.202Z,4.50
2022-08-17T01:14:09.015Z,3.70
2022-08-17T01:16:40.987Z,4.50
2022-08-17T01:19:18.480Z,4.40
2022-08-17T01:21:56.163Z,3.80
2022-08-17T01:24:27.101Z,4.30
2022-08-17T01:26:58.192Z,3.90
2022-08-17T01:29:32.078Z,4.00
2022-08-17T01:32:07.098Z,4.40
2022-08-17T01:34:42.694Z,4.10
2022-08-17T01:37:16.171Z,3.90
2022-08-17T01:39:50.606Z,4.50
2022-08-17T01:42:25.409Z,3.90
2022-08-17T01:45:00.007Z,4.60
2022-08-17T01:47:31.158Z,3.50
2022-08-17T01:50:08.910Z,4.40
2022-08-17T01:52:40.728Z,4.00
2022-08-17T01:55:17.513Z,3.70
2022-08-17T01:57:48.686Z,4.00
2022-08-17T02:00:19.716Z,4.20
2022-08-17T02:02:51.213Z,4.50
2022-08-17T02:05:22.416Z,3.90
2022-08-17T02:08:00.495Z,4.50
2022-08-17T02:10:34.203Z,4.10
2022-08-17T02:13:06.540Z,4.00
2022-08-17T02:15:37.437Z,4.00
2022-08-17T02:18:10.264Z,3.80
2022-08-17T02:20:42.952Z,4.30
2022-08-17T02:23:16.299Z,3.90
2022-08-17T02:25:49.065Z,4.30
2022-08-17T02:28:20.971Z,4.20
2022-08-17T02:31:00.858Z,3.70
2022-08-17T02:33:42.009Z,3.90
2022-08-17T02:36:15.148Z,4.60
2022-08-17T02:38:46.338Z,4.30
2022-08-17T02:41:17.024Z,4.60
2022-08-17T02:46:17.692Z,4.60
2022-08-17T02:48:48.623Z,4.30
2022-08-17T02:53:49.159Z,4.40
2022-08-17T03:01:19.140Z,3.80
2022-08-17T03:03:50.571Z,3.70
2022-08-17T03:06:21.599Z,3.90
2022-08-17T03:08:54.689Z,3.90
2022-08-17T03:11:25.598Z,3.90
2022-08-17T03:13:56.884Z,4.50
2022-08-17T03:16:28.552Z,4.20
2022-08-17T03:18:59.399Z,3.80
2022-08-17T03:21:30.647Z,4.60
2022-08-17T03:24:01.597Z,4.40
2022-08-17T03:26:39.982Z,4.40
2022-08-17T03:29:10.939Z,3.90
2022-08-17T03:31:41.821Z,3.90
2022-08-17T03:34:12.692Z,4.10
2022-08-17T03:36:43.952Z,4.10
2022-08-17T03:39:15.011Z,3.80
2022-08-17T03:41:45.871Z,4.50
2022-08-17T03:44:16.986Z,4.20
2022-08-17T03:47:05.709Z,4.40
2022-08-17T03:49:56.445Z,4.40
2022-08-17T03:52:44.657Z,4.50
2022-08-17T03:55:40.646Z,4.30
2022-08-17T03:58:11.747Z,3.90
2022-08-17T04:00:45.735Z,3.90
2022-08-17T04:03:17.385Z,4.30
2022-08-17T04:05:48.260Z,4.50
2022-08-17T04:08:38.936Z,4.50
2022-08-17T04:11:29.638Z,4.70
2022-08-17T04:14:19.816Z,4.40
2022-08-17T04:17:00.954Z,4.60
2022-08-17T04:19:32.282Z,4.20
2022-08-17T04:22:05.646Z,4.80
2022-08-17T04:24:37.209Z,4.30
2022-08-17T04:27:08.221Z,4.20
2022-08-17T04:29:50.065Z,4.10
2022-08-17T04:33:04.098Z,4.80
2022-08-17T04:35:20.832Z,3.80
2022-08-17T04:37:52.149Z,4.40
2022-08-17T04:40:54.219Z,4.50
2022-08-17T04:43:27.307Z,4.50
2022-08-17T04:46:02.273Z,4.50
2022-08-17T04:48:37.402Z,4.10
2022-08-17T04:52:07.839Z,4.10
2022-08-17T04:54:58.700Z,4.10
2022-08-17T04:57:29.775Z,3.70
2022-08-17T05:00:13.208Z,4.30
2022-08-17T05:02:50.603Z,4.30
2022-08-17T05:05:23.962Z,3.90
2022-08-17T05:07:57.006Z,4.50
2022-08-17T05:10:32.413Z,3.80
2022-08-17T05:13:05.928Z,4.80
2022-08-17T05:15:38.748Z,4.10
2022-08-17T05:18:16.855Z,4.50
2022-08-17T05:20:48.113Z,4.80
2022-08-17T05:23:25.845Z,4.50
2022-08-17T05:25:58.459Z,5.00
2022-08-17T05:28:29.894Z,4.20
2022-08-17T05:31:04.593Z,4.60
2022-08-17T05:33:41.505Z,4.60
2022-08-17T05:36:43.021Z,4.30
2022-08-17T05:39:07.735Z,4.50
2022-08-17T05:41:39.210Z,4.60
2022-08-17T05:44:10.130Z,5.30
2022-08-17T05:46:45.391Z,4.70
2022-08-17T05:49:18.789Z,5.60
2022-08-17T05:52:04.573Z,5.20
2022-08-17T05:54:45.320Z,4.90
2022-08-17T05:57:54.116Z,5.00
2022-08-17T06:00:30.708Z,5.00
2022-08-17T06:03:27.031Z,4.70
2022-08-17T06:06:17.433Z,4.90
2022-08-17T06:08:54.774Z,4.90
2022-08-17T06:11:32.626Z,5.20
2022-08-17T06:14:28.468Z,4.80
2022-08-17T06:17:04.431Z,5.30
2022-08-17T06:19:41.159Z,4.50
2022-08-17T06:22:16.318Z,5.50
2022-08-17T06:24:56.898Z,5.40
2022-08-17T06:27:33.795Z,5.90
2022-08-17T06:30:10.220Z,5.90
2022-08-17T06:32:43.532Z,6.00
2022-08-17T06:35:18.533Z,5.50
2022-08-17T06:38:06.968Z,5.60
2022-08-17T06:40:55.490Z,4.90
2022-08-17T06:43:39.851Z,5.50
2022-08-17T06:46:17.122Z,5.30
2022-08-17T06:48:53.973Z,5.30
2022-08-17T06:51:29.532Z,5.80
2022-08-17T06:54:08.193Z,5.50
2022-08-17T06:56:53.206Z,5.30
2022-08-17T06:59:55.007Z,5.10
2022-08-17T07:02:51.555Z,5.00
2022-08-17T07:05:27.739Z,5.00
2022-08-17T07:08:03.991Z,5.40
2022-08-17T07:10:40.327Z,4.80
2022-08-17T07:13:25.767Z,5.20
2022-08-17T07:16:05.757Z,4.90
2022-08-17T07:18:37.504Z,5.20
2022-08-17T07:21:26.473Z,5.00
2022-08-17T07:24:29.572Z,5.40
2022-08-17T07:27:13.616Z,5.10
2022-08-17T07:29:49.519Z,4.80
2022-08-17T07:32:26.601Z,5.10
2022-08-17T07:35:16.498Z,5.60
2022-08-17T07:37:54.175Z,5.40
2022-08-17T07:40:36.762Z,4.40
2022-08-17T07:43:22.170Z,5.00
2022-08-17T07:46:30.694Z,4.90
2022-08-17T07:49:21.278Z,4.80
2022-08-17T07:52:24.815Z,4.60
2022-08-17T07:54:56.611Z,5.00
2022-08-17T07:57:35.332Z,4.70
2022-08-17T08:00:32.336Z,5.30
2022-08-17T08:03:13.337Z,4.80
2022-08-17T08:05:55.411Z,5.30
2022-08-17T08:08:34.610Z,4.90
2022-08-17T08:11:10.285Z,5.40
2022-08-17T08:13:43.933Z,4.90
2022-08-17T08:16:25.423Z,4.70
2022-08-17T08:18:58.478Z,4.70
2022-08-17T08:21:43.217Z,4.80
2022-08-17T08:24:40.241Z,4.60
2022-08-17T08:27:21.486Z,4.40
2022-08-17T08:29:58.794Z,5.00
2022-08-17T08:32:50.297Z,4.40
2022-08-17T08:35:32.521Z,4.90
2022-08-17T08:38:15.898Z,4.50
2022-08-17T08:41:03.588Z,4.60
2022-08-17T08:43:45.185Z,4.90
2022-08-17T08:46:30.800Z,4.40
2022-08-17T08:49:58.990Z,4.80
2022-08-17T08:52:34.324Z,4.30
2022-08-17T08:55:13.252Z,4.30
2022-08-17T08:57:50.281Z,4.40
2022-08-17T09:00:24.825Z,4.30
2022-08-17T09:03:36.751Z,4.50
2022-08-17T09:06:33.592Z,4.00
2022-08-17T09:09:27.640Z,4.50
2022-08-17T09:12:13.806Z,4.20
2022-08-17T09:14:52.836Z,4.20
2022-08-17T09:17:31.308Z,4.30
2022-08-17T09:20:07.285Z,3.90
2022-08-17T09:22:42.725Z,4.00
2022-08-17T09:25:17.504Z,4.10
2022-08-17T09:27:57.902Z,4.30
2022-08-17T09:30:44.153Z,3.80
2022-08-17T09:33:22.970Z,4.50
2022-08-17T09:35:58.668Z,4.10
2022-08-17T09:38:41.694Z,3.80
2022-08-17T09:41:19.834Z,3.30
2022-08-17T09:44:08.566Z,4.00
2022-08-17T09:47:03.506Z,4.10
2022-08-17T09:49:39.910Z,3.40
2022-08-17T09:52:18.366Z,3.60
2022-08-17T09:54:51.968Z,3.30
2022-08-17T09:57:35.455Z,4.00
2022-08-17T10:00:18.808Z,3.50
2022-08-17T10:03:09.823Z,3.70
2022-08-17T10:05:46.806Z,3.10
2022-08-17T10:08:27.748Z,3.30
2022-08-17T10:11:08.391Z,3.50
2022-08-17T10:13:52.956Z,3.50
2022-08-17T10:16:31.427Z,3.50
2022-08-17T10:19:11.498Z,3.20
2022-08-17T10:22:14.744Z,3.20
2022-08-17T10:25:24.849Z,3.40
2022-08-17T10:28:06.461Z,3.10
2022-08-17T10:30:47.957Z,3.30
2022-08-17T10:33:23.551Z,3.40
2022-08-17T10:36:03.651Z,3.00
2022-08-17T10:38:46.154Z,3.40
2022-08-17T10:41:36.841Z,3.30
2022-08-17T10:44:39.557Z,3.40
2022-08-17T10:47:14.489Z,2.70
2022-08-17T10:49:54.443Z,3.10
2022-08-17T10:52:50.279Z,3.20
2022-08-17T10:55:25.934Z,3.00
2022-08-17T10:58:27.147Z,3.50
2022-08-17T11:01:09.811Z,3.10
2022-08-17T11:03:54.175Z,2.80
2022-08-17T11:06:42.638Z,2.80
2022-08-17T11:12:11.373Z,2.70
2022-08-17T11:15:14.096Z,2.70
2022-08-17T11:18:07.301Z,2.70
2022-08-17T11:21:17.519Z,2.90
2022-08-17T11:24:18.759Z,2.50
2022-08-17T11:27:12.187Z,2.80
2022-08-17T11:29:58.163Z,2.80
2022-08-17T11:32:47.248Z,2.80
2022-08-17T11:35:40.035Z,2.80
2022-08-17T11:38:27.818Z,2.80
2022-08-17T11:44:17.494Z,2.80
2022-08-17T11:47:23.252Z,2.70
2022-08-17T11:50:28.315Z,2.80
2022-08-17T11:52:59.392Z,3.00
2022-08-17T11:56:00.930Z,2.50
2022-08-17T11:58:43.425Z,2.70
2022-08-17T12:01:35.342Z,2.70
2022-08-17T12:04:28.077Z,2.30
2022-08-17T12:07:06.525Z,2.50
2022-08-17T12:09:42.921Z,2.60
2022-08-17T12:12:17.583Z,2.70
2022-08-17T12:15:12.923Z,2.40
2022-08-17T12:17:51.641Z,2.80
2022-08-17T12:20:28.041Z,2.60
2022-08-17T12:23:11.066Z,2.70
2022-08-17T12:25:49.447Z,2.30
2022-08-17T12:28:28.702Z,2.40
2022-08-17T12:31:03.016Z,2.20
2022-08-17T12:33:37.168Z,2.40
2022-08-17T12:36:12.611Z,2.60
2022-08-17T12:38:51.640Z,2.60
2022-08-17T12:41:36.052Z,2.90
2022-08-17T12:44:13.248Z,2.40
2022-08-17T12:47:00.806Z,2.40
2022-08-17T12:49:36.600Z,2.60
2022-08-17T12:52:16.997Z,2.70
2022-08-17T12:55:00.635Z,2.20
2022-08-17T12:57:37.580Z,2.60
2022-08-17T13:00:17.862Z,2.20
2022-08-17T13:02:52.087Z,2.10
2022-08-17T13:05:30.281Z,2.30
2022-08-17T13:08:04.495Z,2.30
2022-08-17T13:10:38.103Z,2.30
2022-08-17T13:13:25.013Z,2.50
2022-08-17T13:15:58.310Z,2.40
2022-08-17T13:18:42.778Z,2.20
2022-08-17T13:21:30.723Z,2.10
2022-08-17T13:26:37.996Z,2.30
2022-08-17T13:29:24.021Z,2.40
2022-08-17T13:32:04.086Z,2.30
2022-08-17T13:34:59.599Z,2.20
2022-08-17T13:37:35.301Z,2.30
2022-08-17T13:40:36.771Z,2.40
2022-08-17T13:43:08.000Z,2.30
2022-08-17T13:46:08.105Z,2.60
2022-08-17T13:48:39.388Z,2.70
2022-08-17T13:51:26.460Z,2.60
2022-08-17T13:54:02.161Z,2.30
2022-08-17T13:56:51.918Z,2.50
2022-08-17T13:59:52.618Z,2.20
2022-08-17T14:04:57.238Z,2.20
2022-08-17T14:07:36.591Z,2.20
2022-08-17T14:10:13.390Z,2.80
2022-08-17T14:12:46.096Z,2.20
2022-08-17T14:15:20.581Z,2.20
2022-08-17T14:17:52.827Z,2.20
2022-08-17T14:20:25.365Z,2.20
2022-08-17T14:22:57.312Z,2.00
2022-08-17T14:25:30.648Z,2.20
2022-08-17T14:28:01.765Z,2.10
2022-08-17T14:30:34.500Z,1.80
2022-08-17T14:33:06.133Z,2.50
2022-08-17T14:35:37.519Z,2.10
2022-08-17T14:38:09.824Z,2.50
2022-08-17T14:40:41.072Z,2.10
2022-08-17T14:43:12.314Z,2.30
2022-08-17T14:45:43.307Z,2.10
2022-08-17T14:48:14.243Z,1.90
2022-08-17T14:50:46.380Z,2.20
2022-08-17T14:53:17.832Z,2.10
2022-08-17T14:55:50.582Z,2.50
2022-08-17T14:58:22.387Z,2.40
2022-08-17T15:00:53.474Z,2.40
2022-08-17T15:03:24.712Z,2.30
2022-08-17T15:05:56.146Z,2.30
2022-08-17T15:08:28.365Z,2.10
2022-08-17T15:11:07.787Z,2.10
2022-08-17T15:13:53.307Z,1.90
2022-08-17T15:16:24.539Z,2.20
2022-08-17T15:18:55.675Z,1.90
2022-08-17T15:21:28.878Z,1.70
2022-08-17T15:24:00.243Z,1.80
2022-08-17T15:26:31.694Z,1.80
2022-08-17T15:29:03.385Z,1.60
2022-08-17T15:31:35.804Z,1.90
2022-08-17T15:34:07.936Z,2.30
2022-08-17T15:36:41.337Z,1.70
2022-08-17T15:39:22.160Z,1.80
2022-08-17T15:41:58.673Z,1.70
2022-08-17T15:44:32.464Z,1.70
2022-08-17T15:47:06.346Z,1.80
2022-08-17T15:49:39.648Z,1.60
2022-08-17T15:52:19.365Z,2.00
2022-08-17T15:54:56.303Z,2.00
2022-08-17T15:57:28.222Z,2.10
2022-08-17T16:00:00.029Z,2.00
2022-08-17T16:03:15.145Z,1.80
2022-08-17T16:05:28.702Z,1.80
2022-08-17T16:08:02.322Z,1.60
2022-08-17T16:10:34.959Z,2.00
2022-08-17T16:13:17.793Z,1.60
2022-08-17T16:15:56.945Z,1.90
2022-08-17T16:18:31.792Z,1.70
2022-08-17T16:21:25.408Z,8.30
2022-08-17T16:23:58.736Z,8.00
2022-08-17T16:26:30.911Z,1.50
2022-08-17T16:29:05.440Z,1.80
2022-08-17T16:31:37.746Z,1.50
2022-08-17T16:34:17.971Z,1.60
2022-08-17T16:36:55.456Z,2.00
2022-08-17T16:39:29.688Z,2.00
2022-08-17T16:42:02.641Z,2.30
2022-08-17T16:44:33.913Z,2.00
2022-08-17T16:47:07.460Z,2.00
2022-08-17T16:49:39.404Z,1.80
2022-08-17T16:52:12.006Z,2.10
2022-08-17T16:54:45.606Z,2.00
2022-08-17T16:57:17.530Z,1.70
2022-08-17T16:59:50.412Z,1.90
2022-08-17T17:02:31.208Z,2.20
2022-08-17T17:05:08.583Z,1.80
2022-08-17T17:07:55.220Z,4.90
2022-08-17T17:10:33.342Z,2.90
2022-08-17T17:13:06.729Z,3.10
2022-08-17T17:15:47.745Z,2.80
2022-08-17T17:18:20.949Z,2.00
2022-08-17T17:20:56.566Z,2.20
2022-08-17T17:23:51.316Z,2.50
2022-08-17T17:26:33.392Z,2.20
2022-08-17T17:31:56.046Z,1.80
2022-08-17T17:34:30.659Z,2.60
2022-08-17T17:37:09.008Z,2.60
2022-08-17T17:39:45.326Z,3.40
2022-08-17T17:42:20.468Z,8.60
2022-08-17T17:44:56.715Z,2.30
2022-08-17T17:47:27.760Z,2.20
2022-08-17T17:50:01.050Z,2.50
2022-08-17T17:52:38.814Z,2.20
2022-08-17T17:55:19.399Z,2.30
2022-08-17T17:58:02.443Z,2.70
2022-08-17T18:00:40.323Z,3.10
2022-08-17T18:03:27.129Z,2.70
2022-08-17T18:06:23.860Z,2.70
2022-08-17T18:09:10.161Z,2.50
2022-08-17T18:11:59.975Z,2.80
2022-08-17T18:14:47.734Z,3.40
2022-08-17T18:17:20.522Z,3.10
2022-08-17T18:19:51.465Z,2.90
2022-08-17T18:22:24.418Z,2.80
2022-08-17T18:24:57.411Z,2.90
2022-08-17T18:27:35.009Z,3.00
2022-08-17T18:30:28.885Z,2.70
2022-08-17T18:33:26.964Z,2.70
2022-08-17T18:36:14.021Z,3.10
2022-08-17T18:38:54.305Z,2.50
2022-08-17T18:41:31.851Z,3.10
2022-08-17T18:44:17.493Z,2.80
2022-08-17T18:46:49.091Z,2.90
2022-08-17T18:49:30.228Z,2.90
2022-08-17T18:52:15.563Z,2.70
2022-08-17T18:55:03.920Z,2.40
2022-08-17T18:57:38.260Z,2.50
2022-08-17T19:00:26.701Z,2.60
2022-08-17T19:03:09.766Z,2.80
2022-08-17T19:05:46.632Z,3.30
2022-08-17T19:08:28.411Z,3.10
2022-08-17T19:11:04.733Z,3.20
2022-08-17T19:13:40.516Z,3.60
2022-08-17T19:16:18.655Z,3.20
2022-08-17T19:18:57.956Z,3.20
2022-08-17T19:21:36.097Z,3.00
2022-08-17T19:24:12.635Z,3.10
2022-08-17T19:26:54.600Z,3.00
2022-08-17T19:29:36.962Z,3.60
2022-08-17T19:32:10.694Z,3.30
2022-08-17T19:34:44.766Z,3.80
2022-08-17T19:37:28.517Z,5.40
2022-08-17T19:40:24.528Z,4.30
2022-08-17T19:43:10.792Z,4.20
2022-08-17T19:45:56.144Z,4.00
2022-08-17T19:48:40.879Z,4.10
2022-08-17T19:51:17.890Z,3.20
2022-08-17T19:54:05.829Z,3.50
2022-08-17T19:56:45.770Z,3.60
2022-08-17T19:59:26.012Z,2.90
2022-08-17T20:02:01.338Z,3.50
2022-08-17T20:04:42.224Z,2.90
2022-08-17T20:07:18.951Z,2.90
2022-08-17T20:09:57.109Z,2.90
2022-08-17T20:12:34.567Z,2.80
2022-08-17T20:15:10.718Z,2.70
2022-08-17T20:17:47.418Z,3.20
2022-08-17T20:23:00.275Z,2.90
2022-08-17T20:25:39.176Z,2.80
2022-08-17T20:28:23.334Z,3.50
2022-08-17T20:30:54.912Z,3.50
2022-08-17T20:33:29.915Z,3.40
2022-08-17T20:36:15.299Z,3.30
2022-08-17T20:38:50.635Z,3.50
2022-08-17T20:41:24.339Z,3.70
2022-08-17T20:44:06.817Z,3.90
2022-08-17T20:47:04.721Z,3.50
2022-08-17T20:49:50.271Z,3.90
2022-08-17T20:52:52.169Z,3.20
2022-08-17T20:55:53.529Z,2.80
2022-08-17T20:58:48.231Z,2.90
2022-08-17T21:01:35.366Z,3.20
2022-08-17T21:04:09.547Z,3.60
2022-08-17T21:07:17.652Z,3.60
2022-08-17T21:09:50.096Z,3.70
2022-08-17T21:12:43.148Z,3.50
2022-08-17T21:15:31.235Z,3.30
2022-08-17T21:18:12.527Z,3.20
2022-08-17T21:20:58.250Z,3.20
2022-08-17T21:23:48.216Z,3.30
2022-08-17T21:26:31.584Z,3.40
2022-08-17T21:29:29.490Z,3.30
2022-08-17T21:32:24.233Z,3.60
2022-08-17T21:35:47.327Z,3.90
2022-08-17T21:38:20.887Z,3.30
2022-08-17T21:40:54.224Z,3.70
2022-08-17T21:43:32.060Z,3.80
2022-08-17T21:46:08.341Z,2.70
2022-08-17T21:48:48.256Z,3.60
2022-08-17T21:51:23.942Z,3.10
2022-08-17T21:53:58.669Z,3.20
2022-08-17T21:56:32.775Z,3.70
2022-08-17T21:59:07.144Z,3.70
2022-08-17T22:01:41.395Z,3.30
2022-08-17T22:04:25.538Z,3.70
2022-08-17T22:06:57.897Z,4.00
2022-08-17T22:09:32.180Z,4.10
2022-08-17T22:12:07.533Z,3.90
2022-08-17T22:14:53.243Z,4.20
2022-08-17T22:17:27.688Z,3.50
2022-08-17T22:20:01.823Z,4.60
2022-08-17T22:22:57.884Z,4.00
2022-08-17T22:25:31.127Z,3.80
2022-08-17T22:28:03.965Z,4.00
2022-08-17T22:30:40.337Z,3.40
2022-08-17T22:33:37.906Z,3.70
2022-08-17T22:36:26.531Z,4.10
2022-08-17T22:39:02.739Z,4.30
2022-08-17T22:41:54.705Z,3.80
2022-08-17T22:44:30.336Z,4.40
2022-08-17T22:47:06.805Z,4.10
2022-08-17T22:49:53.140Z,4.60
2022-08-17T22:52:32.719Z,4.60
2022-08-17T22:55:26.383Z,4.40
2022-08-17T22:58:14.801Z,4.30
2022-08-17T23:00:48.753Z,4.50
2022-08-17T23:03:22.364Z,4.30
2022-08-17T23:06:06.825Z,4.90
2022-08-17T23:08:47.224Z,4.60
2022-08-17T23:11:18.279Z,4.60
2022-08-17T23:13:49.394Z,5.20
2022-08-17T23:16:21.349Z,4.90
2022-08-17T23:18:52.728Z,5.30
2022-08-17T23:21:29.590Z,5.10
2022-08-17T23:24:01.946Z,4.70
2022-08-17T23:26:39.440Z,5.00
2022-08-17T23:29:10.860Z,4.90
2022-08-17T23:31:42.858Z,4.50
2022-08-17T23:34:18.513Z,4.70
2022-08-17T23:36:52.370Z,4.70
2022-08-17T23:39:27.695Z,4.40
2022-08-17T23:42:00.264Z,4.30
2022-08-17T23:44:32.764Z,4.00
2022-08-17T23:47:04.620Z,4.80
2022-08-17T23:49:36.184Z,4.50
2022-08-17T23:52:12.636Z,4.90
2022-08-17T23:54:48.103Z,5.00
2022-08-17T23:57:33.712Z,4.70
